Terminal Aerodrome Forecast
Issued by NWS Corpus Christi, TX

Home | Current Version | Previous Version | Text Only | Print | Product List | Glossary On
Versions: 1 2 3 4 5 6 7 8 9 10 11 12 13 14 15 16 17 18 19 20 21
000
FTUS44 KCRP 222300
TAFCRP
TAF
KCRP 222330Z 2300/2324 19006KT P6SM SCT250
     FM230400 17006KT 4SM BR SCT005
     FM230700 20005KT 2SM BR OVC005
      TEMPO 2308/2312 1SM BR OVC002
     FM231600 32012KT P6SM BKN015
     FM231800 33020G30KT P6SM SCT150=

USA.gov is the U.S. government's official web portal to all federal, state and local government web resources and services.